Westover, Maryland
Current Conditions -  °F | °C
As of 10:54 PM on Friday 19 Dec 2014 (Local Time) from KSBY Reporting Station
Clear Clear  
Wind Chill: 25°   Ceiling: Unl
Heat Index: 30°   Visibility: 10mi
Dew Point: 23°   Wind: 5mph
Humidity: 75%   Direction: 310°NW
Pressure: 30.22"   Gusts: NA
Location:  38.12°N, 75.71°W
Report Text: KSBY 200354Z AUTO 31004KT 10SM CLR M01/M05 A3022 RMK AO2 SLP237 T10111050
Loading
Personal Weather Stations






























Interactive Weather Map New forecast layout! Learn more

10-Day Weather Forecast

Advertisements
Track Severe Weather on mobile